sensor_id;sensor_type;location;lat;lon;timestamp;temperature;humidity
67870;DHT22;54673;52.262;6.830;2023-01-26T00:01:15;14.00;47.50
67870;DHT22;54673;52.262;6.830;2023-01-26T00:03:41;14.00;47.60
67870;DHT22;54673;52.262;6.830;2023-01-26T00:06:09;14.00;47.60
67870;DHT22;54673;52.262;6.830;2023-01-26T00:08:36;13.90;47.60
67870;DHT22;54673;52.262;6.830;2023-01-26T00:11:03;14.00;47.70
67870;DHT22;54673;52.262;6.830;2023-01-26T00:13:29;14.00;47.70
67870;DHT22;54673;52.262;6.830;2023-01-26T00:15:55;13.90;47.70
67870;DHT22;54673;52.262;6.830;2023-01-26T00:18:21;13.90;47.70
67870;DHT22;54673;52.262;6.830;2023-01-26T00:20:46;13.90;47.70
67870;DHT22;54673;52.262;6.830;2023-01-26T00:23:13;13.90;47.70
67870;DHT22;54673;52.262;6.830;2023-01-26T00:25:38;13.90;47.70
67870;DHT22;54673;52.262;6.830;2023-01-26T00:28:06;13.80;47.80
67870;DHT22;54673;52.262;6.830;2023-01-26T00:30:32;13.80;47.90
67870;DHT22;54673;52.262;6.830;2023-01-26T00:32:58;13.80;47.90
67870;DHT22;54673;52.262;6.830;2023-01-26T00:35:23;13.80;47.90
67870;DHT22;54673;52.262;6.830;2023-01-26T00:37:49;13.80;47.90
67870;DHT22;54673;52.262;6.830;2023-01-26T00:40:15;13.80;48.00
67870;DHT22;54673;52.262;6.830;2023-01-26T00:42:40;13.70;48.00
67870;DHT22;54673;52.262;6.830;2023-01-26T00:45:06;13.70;47.90
67870;DHT22;54673;52.262;6.830;2023-01-26T00:47:32;13.70;47.90
67870;DHT22;54673;52.262;6.830;2023-01-26T00:49:57;13.70;48.00
67870;DHT22;54673;52.262;6.830;2023-01-26T00:52:23;13.70;48.00
67870;DHT22;54673;52.262;6.830;2023-01-26T00:54:48;13.70;48.10
67870;DHT22;54673;52.262;6.830;2023-01-26T00:57:14;13.70;48.00
67870;DHT22;54673;52.262;6.830;2023-01-26T00:59:40;13.70;48.00
67870;DHT22;54673;52.262;6.830;2023-01-26T01:02:05;13.70;48.00
67870;DHT22;54673;52.262;6.830;2023-01-26T01:04:32;13.60;48.00
67870;DHT22;54673;52.262;6.830;2023-01-26T01:06:57;13.60;48.20
67870;DHT22;54673;52.262;6.830;2023-01-26T01:09:23;13.60;48.20
67870;DHT22;54673;52.262;6.830;2023-01-26T01:11:49;13.60;48.10
67870;DHT22;54673;52.262;6.830;2023-01-26T01:14:15;13.60;48.10
67870;DHT22;54673;52.262;6.830;2023-01-26T01:16:41;13.60;48.10
67870;DHT22;54673;52.262;6.830;2023-01-26T01:19:07;13.60;48.10
67870;DHT22;54673;52.262;6.830;2023-01-26T01:21:37;13.60;48.10
67870;DHT22;54673;52.262;6.830;2023-01-26T01:24:03;13.50;48.10
67870;DHT22;54673;52.262;6.830;2023-01-26T01:26:29;13.50;48.20
67870;DHT22;54673;52.262;6.830;2023-01-26T01:28:55;13.50;48.10
67870;DHT22;54673;52.262;6.830;2023-01-26T01:31:21;13.50;48.20
67870;DHT22;54673;52.262;6.830;2023-01-26T01:33:47;13.50;48.20
67870;DHT22;54673;52.262;6.830;2023-01-26T01:36:15;13.50;48.20
67870;DHT22;54673;52.262;6.830;2023-01-26T01:38:42;13.50;48.30
67870;DHT22;54673;52.262;6.830;2023-01-26T01:41:08;13.40;48.20
67870;DHT22;54673;52.262;6.830;2023-01-26T01:43:34;13.40;48.20
67870;DHT22;54673;52.262;6.830;2023-01-26T01:46:24;13.40;48.20
67870;DHT22;54673;52.262;6.830;2023-01-26T01:48:55;13.40;48.20
67870;DHT22;54673;52.262;6.830;2023-01-26T01:53:59;13.40;48.30
67870;DHT22;54673;52.262;6.830;2023-01-26T01:56:27;13.40;48.30
67870;DHT22;54673;52.262;6.830;2023-01-26T01:58:57;13.40;48.30
67870;DHT22;54673;52.262;6.830;2023-01-26T02:01:23;13.40;48.30
67870;DHT22;54673;52.262;6.830;2023-01-26T02:03:51;13.40;48.40
67870;DHT22;54673;52.262;6.830;2023-01-26T02:06:22;13.40;48.40
67870;DHT22;54673;52.262;6.830;2023-01-26T02:08:51;13.30;48.40
67870;DHT22;54673;52.262;6.830;2023-01-26T02:11:31;13.30;48.40
67870;DHT22;54673;52.262;6.830;2023-01-26T02:13:59;13.30;48.40
67870;DHT22;54673;52.262;6.830;2023-01-26T02:16:26;13.30;48.30
67870;DHT22;54673;52.262;6.830;2023-01-26T02:18:52;13.40;48.40
67870;DHT22;54673;52.262;6.830;2023-01-26T02:21:20;13.30;48.40
67870;DHT22;54673;52.262;6.830;2023-01-26T02:24:04;13.30;48.40
67870;DHT22;54673;52.262;6.830;2023-01-26T02:26:33;13.30;48.40
67870;DHT22;54673;52.262;6.830;2023-01-26T02:29:00;13.30;48.40
67870;DHT22;54673;52.262;6.830;2023-01-26T02:31:27;13.30;48.40
67870;DHT22;54673;52.262;6.830;2023-01-26T02:33:53;13.30;48.50
67870;DHT22;54673;52.262;6.830;2023-01-26T02:36:28;13.20;48.50
67870;DHT22;54673;52.262;6.830;2023-01-26T02:39:16;13.20;48.50
67870;DHT22;54673;52.262;6.830;2023-01-26T02:41:46;13.30;48.50
67870;DHT22;54673;52.262;6.830;2023-01-26T02:44:31;13.20;48.50
67870;DHT22;54673;52.262;6.830;2023-01-26T02:46:57;13.20;48.60
67870;DHT22;54673;52.262;6.830;2023-01-26T02:49:22;13.20;48.50
67870;DHT22;54673;52.262;6.830;2023-01-26T02:52:07;13.20;48.50
67870;DHT22;54673;52.262;6.830;2023-01-26T02:54:32;13.20;48.50
67870;DHT22;54673;52.262;6.830;2023-01-26T02:57:17;13.20;48.60
67870;DHT22;54673;52.262;6.830;2023-01-26T02:59:42;13.20;48.50
67870;DHT22;54673;52.262;6.830;2023-01-26T03:02:08;13.20;48.50
67870;DHT22;54673;52.262;6.830;2023-01-26T03:04:34;13.20;48.50
67870;DHT22;54673;52.262;6.830;2023-01-26T03:07:00;13.20;48.60
67870;DHT22;54673;52.262;6.830;2023-01-26T03:09:25;13.20;48.60
67870;DHT22;54673;52.262;6.830;2023-01-26T03:11:51;13.20;48.60
67870;DHT22;54673;52.262;6.830;2023-01-26T03:14:17;13.20;48.70
67870;DHT22;54673;52.262;6.830;2023-01-26T03:16:43;13.10;48.50
67870;DHT22;54673;52.262;6.830;2023-01-26T03:19:11;13.10;48.50
67870;DHT22;54673;52.262;6.830;2023-01-26T03:21:57;13.10;48.50
67870;DHT22;54673;52.262;6.830;2023-01-26T03:24:42;13.10;48.60
67870;DHT22;54673;52.262;6.830;2023-01-26T03:27:28;13.10;48.60
67870;DHT22;54673;52.262;6.830;2023-01-26T03:29:55;13.10;48.70
67870;DHT22;54673;52.262;6.830;2023-01-26T03:32:21;13.10;48.70
67870;DHT22;54673;52.262;6.830;2023-01-26T03:34:47;13.20;48.70
67870;DHT22;54673;52.262;6.830;2023-01-26T03:37:12;13.10;48.70
67870;DHT22;54673;52.262;6.830;2023-01-26T03:39:38;13.10;48.60
67870;DHT22;54673;52.262;6.830;2023-01-26T03:42:22;13.10;48.60
67870;DHT22;54673;52.262;6.830;2023-01-26T03:45:07;13.10;48.60
67870;DHT22;54673;52.262;6.830;2023-01-26T03:47:51;13.10;48.70
67870;DHT22;54673;52.262;6.830;2023-01-26T03:50:35;13.10;48.70
67870;DHT22;54673;52.262;6.830;2023-01-26T03:53:22;13.10;48.70
67870;DHT22;54673;52.262;6.830;2023-01-26T03:56:09;13.10;48.80
67870;DHT22;54673;52.262;6.830;2023-01-26T03:58:51;13.10;48.70
67870;DHT22;54673;52.262;6.830;2023-01-26T04:01:18;13.00;48.70
67870;DHT22;54673;52.262;6.830;2023-01-26T04:03:46;13.10;48.80
67870;DHT22;54673;52.262;6.830;2023-01-26T04:06:31;12.10;48.30
67870;DHT22;54673;52.262;6.830;2023-01-26T04:09:15;13.00;48.70
67870;DHT22;54673;52.262;6.830;2023-01-26T04:11:41;13.10;48.90
67870;DHT22;54673;52.262;6.830;2023-01-26T04:14:10;13.00;48.90
67870;DHT22;54673;52.262;6.830;2023-01-26T04:16:55;13.00;48.90
67870;DHT22;54673;52.262;6.830;2023-01-26T04:19:40;13.00;48.90
67870;DHT22;54673;52.262;6.830;2023-01-26T04:22:24;13.00;49.00
67870;DHT22;54673;52.262;6.830;2023-01-26T04:24:50;13.00;49.00
67870;DHT22;54673;52.262;6.830;2023-01-26T04:27:16;13.00;49.00
67870;DHT22;54673;52.262;6.830;2023-01-26T04:29:41;13.10;49.10
67870;DHT22;54673;52.262;6.830;2023-01-26T04:32:07;13.00;49.00
67870;DHT22;54673;52.262;6.830;2023-01-26T04:34:33;12.90;49.00
67870;DHT22;54673;52.262;6.830;2023-01-26T04:36:58;12.90;49.00
67870;DHT22;54673;52.262;6.830;2023-01-26T04:39:24;13.00;49.10
67870;DHT22;54673;52.262;6.830;2023-01-26T04:41:50;13.00;49.10
67870;DHT22;54673;52.262;6.830;2023-01-26T04:44:15;13.10;49.30
67870;DHT22;54673;52.262;6.830;2023-01-26T04:46:41;12.90;49.10
67870;DHT22;54673;52.262;6.830;2023-01-26T04:49:07;12.90;49.10
67870;DHT22;54673;52.262;6.830;2023-01-26T04:51:33;12.90;49.20
67870;DHT22;54673;52.262;6.830;2023-01-26T04:53:59;12.90;50.00
67870;DHT22;54673;52.262;6.830;2023-01-26T04:56:27;12.90;49.20
67870;DHT22;54673;52.262;6.830;2023-01-26T04:58:54;12.90;49.20
67870;DHT22;54673;52.262;6.830;2023-01-26T05:01:20;12.90;49.20
67870;DHT22;54673;52.262;6.830;2023-01-26T05:03:45;12.90;49.20
67870;DHT22;54673;52.262;6.830;2023-01-26T05:06:11;12.90;49.20
67870;DHT22;54673;52.262;6.830;2023-01-26T05:08:37;12.90;49.20
67870;DHT22;54673;52.262;6.830;2023-01-26T05:11:03;13.00;49.30
67870;DHT22;54673;52.262;6.830;2023-01-26T05:13:29;11.80;48.90
67870;DHT22;54673;52.262;6.830;2023-01-26T05:15:55;12.90;49.20
67870;DHT22;54673;52.262;6.830;2023-01-26T05:18:21;12.90;49.20
67870;DHT22;54673;52.262;6.830;2023-01-26T05:20:47;12.90;49.30
67870;DHT22;54673;52.262;6.830;2023-01-26T05:23:12;12.90;49.20
67870;DHT22;54673;52.262;6.830;2023-01-26T05:25:38;12.80;49.20
67870;DHT22;54673;52.262;6.830;2023-01-26T05:28:04;12.90;49.30
67870;DHT22;54673;52.262;6.830;2023-01-26T05:30:30;12.80;50.20
67870;DHT22;54673;52.262;6.830;2023-01-26T05:33:05;12.80;49.20
67870;DHT22;54673;52.262;6.830;2023-01-26T05:35:32;12.80;49.20
67870;DHT22;54673;52.262;6.830;2023-01-26T05:37:57;12.80;49.20
67870;DHT22;54673;52.262;6.830;2023-01-26T05:40:23;12.80;49.30
67870;DHT22;54673;52.262;6.830;2023-01-26T05:42:51;12.80;49.30
67870;DHT22;54673;52.262;6.830;2023-01-26T05:45:17;12.80;49.30
67870;DHT22;54673;52.262;6.830;2023-01-26T05:47:44;12.80;49.30
67870;DHT22;54673;52.262;6.830;2023-01-26T05:50:10;12.80;49.30
67870;DHT22;54673;52.262;6.830;2023-01-26T05:52:36;12.80;49.30
67870;DHT22;54673;52.262;6.830;2023-01-26T05:55:03;12.80;49.30
67870;DHT22;54673;52.262;6.830;2023-01-26T05:57:29;12.80;49.40
67870;DHT22;54673;52.262;6.830;2023-01-26T05:59:55;12.80;49.40
67870;DHT22;54673;52.262;6.830;2023-01-26T06:02:20;12.80;49.40
67870;DHT22;54673;52.262;6.830;2023-01-26T06:04:46;12.80;49.50
67870;DHT22;54673;52.262;6.830;2023-01-26T06:07:12;12.80;49.30
67870;DHT22;54673;52.262;6.830;2023-01-26T06:09:41;12.80;49.30
67870;DHT22;54673;52.262;6.830;2023-01-26T06:12:13;12.80;49.20
67870;DHT22;54673;52.262;6.830;2023-01-26T06:14:39;12.80;49.30
67870;DHT22;54673;52.262;6.830;2023-01-26T06:17:05;12.80;49.40
67870;DHT22;54673;52.262;6.830;2023-01-26T06:19:30;12.80;49.40
67870;DHT22;54673;52.262;6.830;2023-01-26T06:21:56;12.80;49.30
67870;DHT22;54673;52.262;6.830;2023-01-26T06:24:21;12.80;49.30
67870;DHT22;54673;52.262;6.830;2023-01-26T06:26:48;12.80;49.30
67870;DHT22;54673;52.262;6.830;2023-01-26T06:29:14;12.80;49.40
67870;DHT22;54673;52.262;6.830;2023-01-26T06:31:39;12.80;49.50
67870;DHT22;54673;52.262;6.830;2023-01-26T06:34:06;12.80;49.50
67870;DHT22;54673;52.262;6.830;2023-01-26T06:36:32;12.70;49.80
67870;DHT22;54673;52.262;6.830;2023-01-26T06:38:57;12.80;49.80
67870;DHT22;54673;52.262;6.830;2023-01-26T06:41:23;12.80;49.80
67870;DHT22;54673;52.262;6.830;2023-01-26T06:43:49;12.80;49.80
67870;DHT22;54673;52.262;6.830;2023-01-26T06:46:16;12.80;49.80
67870;DHT22;54673;52.262;6.830;2023-01-26T06:48:42;12.80;49.80
67870;DHT22;54673;52.262;6.830;2023-01-26T06:53:59;12.70;49.70
67870;DHT22;54673;52.262;6.830;2023-01-26T06:56:24;12.70;49.60
67870;DHT22;54673;52.262;6.830;2023-01-26T06:58:53;12.70;49.60
67870;DHT22;54673;52.262;6.830;2023-01-26T07:01:21;12.70;49.70
67870;DHT22;54673;52.262;6.830;2023-01-26T07:03:47;12.70;49.60
67870;DHT22;54673;52.262;6.830;2023-01-26T07:06:13;12.70;49.60
67870;DHT22;54673;52.262;6.830;2023-01-26T07:08:39;12.70;49.60
67870;DHT22;54673;52.262;6.830;2023-01-26T07:11:06;12.70;49.60
67870;DHT22;54673;52.262;6.830;2023-01-26T07:13:32;12.70;49.70
67870;DHT22;54673;52.262;6.830;2023-01-26T07:16:06;12.70;49.80
67870;DHT22;54673;52.262;6.830;2023-01-26T07:18:32;12.70;49.70
67870;DHT22;54673;52.262;6.830;2023-01-26T07:21:13;12.70;49.70
67870;DHT22;54673;52.262;6.830;2023-01-26T07:23:39;12.70;49.60
67870;DHT22;54673;52.262;6.830;2023-01-26T07:26:05;12.70;49.70
67870;DHT22;54673;52.262;6.830;2023-01-26T07:28:31;12.70;49.70
67870;DHT22;54673;52.262;6.830;2023-01-26T07:30:59;12.70;49.70
67870;DHT22;54673;52.262;6.830;2023-01-26T07:33:25;12.70;49.80
67870;DHT22;54673;52.262;6.830;2023-01-26T07:35:53;12.70;49.70
67870;DHT22;54673;52.262;6.830;2023-01-26T07:38:19;12.70;49.70
67870;DHT22;54673;52.262;6.830;2023-01-26T07:40:44;12.70;49.70
67870;DHT22;54673;52.262;6.830;2023-01-26T07:43:10;12.70;49.80
67870;DHT22;54673;52.262;6.830;2023-01-26T07:45:35;12.60;49.70
67870;DHT22;54673;52.262;6.830;2023-01-26T07:48:01;12.80;49.80
67870;DHT22;54673;52.262;6.830;2023-01-26T07:50:27;12.70;49.70
67870;DHT22;54673;52.262;6.830;2023-01-26T07:52:53;12.70;49.80
67870;DHT22;54673;52.262;6.830;2023-01-26T07:55:19;12.70;49.80
67870;DHT22;54673;52.262;6.830;2023-01-26T07:57:48;12.70;49.80
67870;DHT22;54673;52.262;6.830;2023-01-26T08:00:14;12.70;49.90
67870;DHT22;54673;52.262;6.830;2023-01-26T08:02:40;12.70;49.90
67870;DHT22;54673;52.262;6.830;2023-01-26T08:05:06;12.70;49.80
67870;DHT22;54673;52.262;6.830;2023-01-26T08:07:32;12.70;50.00
67870;DHT22;54673;52.262;6.830;2023-01-26T08:09:58;12.70;50.10
67870;DHT22;54673;52.262;6.830;2023-01-26T08:12:24;12.70;49.90
67870;DHT22;54673;52.262;6.830;2023-01-26T08:14:49;12.70;49.60
67870;DHT22;54673;52.262;6.830;2023-01-26T08:17:15;12.70;50.00
67870;DHT22;54673;52.262;6.830;2023-01-26T08:19:44;12.80;50.00
67870;DHT22;54673;52.262;6.830;2023-01-26T08:22:10;12.80;50.10
67870;DHT22;54673;52.262;6.830;2023-01-26T08:24:36;12.80;50.30
67870;DHT22;54673;52.262;6.830;2023-01-26T08:27:02;12.80;50.40
67870;DHT22;54673;52.262;6.830;2023-01-26T08:29:28;12.80;50.40
67870;DHT22;54673;52.262;6.830;2023-01-26T08:31:53;12.80;50.20
67870;DHT22;54673;52.262;6.830;2023-01-26T08:34:19;12.80;50.00
67870;DHT22;54673;52.262;6.830;2023-01-26T08:36:47;12.80;50.10
67870;DHT22;54673;52.262;6.830;2023-01-26T08:39:12;12.80;50.30
67870;DHT22;54673;52.262;6.830;2023-01-26T08:41:38;12.80;49.80
67870;DHT22;54673;52.262;6.830;2023-01-26T08:44:04;12.80;49.80
67870;DHT22;54673;52.262;6.830;2023-01-26T08:46:30;12.80;49.80
67870;DHT22;54673;52.262;6.830;2023-01-26T08:48:55;12.90;49.90
67870;DHT22;54673;52.262;6.830;2023-01-26T08:51:21;12.90;49.90
67870;DHT22;54673;52.262;6.830;2023-01-26T08:53:47;12.90;49.80
67870;DHT22;54673;52.262;6.830;2023-01-26T08:56:12;12.90;49.90
67870;DHT22;54673;52.262;6.830;2023-01-26T08:58:38;12.90;49.80
67870;DHT22;54673;52.262;6.830;2023-01-26T09:01:05;12.80;49.80
67870;DHT22;54673;52.262;6.830;2023-01-26T09:03:32;12.90;49.90
67870;DHT22;54673;52.262;6.830;2023-01-26T09:06:02;12.90;49.90
67870;DHT22;54673;52.262;6.830;2023-01-26T09:08:29;12.90;49.90
67870;DHT22;54673;52.262;6.830;2023-01-26T09:10:55;12.90;49.90
67870;DHT22;54673;52.262;6.830;2023-01-26T09:13:21;12.90;49.80
67870;DHT22;54673;52.262;6.830;2023-01-26T09:15:46;12.90;49.90
67870;DHT22;54673;52.262;6.830;2023-01-26T09:18:12;13.00;49.90
67870;DHT22;54673;52.262;6.830;2023-01-26T09:20:38;13.00;49.90
67870;DHT22;54673;52.262;6.830;2023-01-26T09:23:04;12.90;49.90
67870;DHT22;54673;52.262;6.830;2023-01-26T09:25:30;13.00;49.90
67870;DHT22;54673;52.262;6.830;2023-01-26T09:27:55;13.00;49.90
67870;DHT22;54673;52.262;6.830;2023-01-26T09:30:21;13.00;50.40
67870;DHT22;54673;52.262;6.830;2023-01-26T09:32:49;13.00;50.00
67870;DHT22;54673;52.262;6.830;2023-01-26T09:35:15;12.90;50.20
67870;DHT22;54673;52.262;6.830;2023-01-26T09:37:42;12.90;50.00
67870;DHT22;54673;52.262;6.830;2023-01-26T09:40:16;12.90;49.90
67870;DHT22;54673;52.262;6.830;2023-01-26T09:42:59;12.90;49.90
67870;DHT22;54673;52.262;6.830;2023-01-26T09:45:34;12.90;49.90
67870;DHT22;54673;52.262;6.830;2023-01-26T09:50:59;12.90;49.90
67870;DHT22;54673;52.262;6.830;2023-01-26T09:55:59;12.90;49.90
67870;DHT22;54673;52.262;6.830;2023-01-26T09:58:34;12.90;49.80
67870;DHT22;54673;52.262;6.830;2023-01-26T10:01:02;12.90;49.90
67870;DHT22;54673;52.262;6.830;2023-01-26T10:03:50;13.00;49.90
67870;DHT22;54673;52.262;6.830;2023-01-26T10:06:26;13.00;50.00
67870;DHT22;54673;52.262;6.830;2023-01-26T10:08:54;13.00;50.20
67870;DHT22;54673;52.262;6.830;2023-01-26T10:14:03;13.00;50.20
67870;DHT22;54673;52.262;6.830;2023-01-26T10:16:33;13.00;50.10
67870;DHT22;54673;52.262;6.830;2023-01-26T10:19:05;13.00;50.20
67870;DHT22;54673;52.262;6.830;2023-01-26T10:21:39;13.10;50.30
67870;DHT22;54673;52.262;6.830;2023-01-26T10:24:08;13.00;50.30
67870;DHT22;54673;52.262;6.830;2023-01-26T10:26:35;13.10;50.50
67870;DHT22;54673;52.262;6.830;2023-01-26T10:29:01;13.10;50.60
67870;DHT22;54673;52.262;6.830;2023-01-26T10:31:29;13.10;50.60
67870;DHT22;54673;52.262;6.830;2023-01-26T10:33:57;13.10;50.40
67870;DHT22;54673;52.262;6.830;2023-01-26T10:36:24;13.10;50.40
67870;DHT22;54673;52.262;6.830;2023-01-26T10:38:53;13.10;50.40
67870;DHT22;54673;52.262;6.830;2023-01-26T10:41:20;13.20;50.40
67870;DHT22;54673;52.262;6.830;2023-01-26T10:44:00;13.10;50.30
67870;DHT22;54673;52.262;6.830;2023-01-26T10:46:35;13.10;50.30
67870;DHT22;54673;52.262;6.830;2023-01-26T10:49:22;13.10;50.30
67870;DHT22;54673;52.262;6.830;2023-01-26T10:54:33;13.20;50.50
67870;DHT22;54673;52.262;6.830;2023-01-26T10:57:03;13.10;50.50
67870;DHT22;54673;52.262;6.830;2023-01-26T10:59:48;13.20;50.50
67870;DHT22;54673;52.262;6.830;2023-01-26T11:04:40;13.20;50.90
67870;DHT22;54673;52.262;6.830;2023-01-26T11:07:27;13.20;51.00
67870;DHT22;54673;52.262;6.830;2023-01-26T11:09:53;13.20;50.90
67870;DHT22;54673;52.262;6.830;2023-01-26T11:12:20;13.20;50.90
67870;DHT22;54673;52.262;6.830;2023-01-26T11:15:34;13.20;50.80
67870;DHT22;54673;52.262;6.830;2023-01-26T11:18:03;13.20;50.90
67870;DHT22;54673;52.262;6.830;2023-01-26T11:24:17;13.20;50.80
67870;DHT22;54673;52.262;6.830;2023-01-26T11:38:29;13.20;51.00
67870;DHT22;54673;52.262;6.830;2023-01-26T11:46:41;13.30;51.10
67870;DHT22;54673;52.262;6.830;2023-01-26T11:52:08;13.30;51.10
67870;DHT22;54673;52.262;6.830;2023-01-26T11:54:56;13.30;51.00
67870;DHT22;54673;52.262;6.830;2023-01-26T12:00:19;13.30;51.00
67870;DHT22;54673;52.262;6.830;2023-01-26T12:02:52;13.30;51.00
67870;DHT22;54673;52.262;6.830;2023-01-26T12:05:30;13.30;51.00
67870;DHT22;54673;52.262;6.830;2023-01-26T12:08:19;13.40;51.00
67870;DHT22;54673;52.262;6.830;2023-01-26T12:10:47;13.30;50.90
67870;DHT22;54673;52.262;6.830;2023-01-26T12:13:35;13.30;50.90
67870;DHT22;54673;52.262;6.830;2023-01-26T12:16:15;13.30;50.90
67870;DHT22;54673;52.262;6.830;2023-01-26T12:18:50;13.30;50.90
67870;DHT22;54673;52.262;6.830;2023-01-26T12:21:19;13.30;50.80
67870;DHT22;54673;52.262;6.830;2023-01-26T12:23:47;13.30;50.80
67870;DHT22;54673;52.262;6.830;2023-01-26T12:26:19;13.30;50.80
67870;DHT22;54673;52.262;6.830;2023-01-26T12:31:33;13.30;50.80
67870;DHT22;54673;52.262;6.830;2023-01-26T12:34:01;13.30;50.80
67870;DHT22;54673;52.262;6.830;2023-01-26T12:44:43;13.30;50.90
67870;DHT22;54673;52.262;6.830;2023-01-26T12:47:33;13.30;50.90
67870;DHT22;54673;52.262;6.830;2023-01-26T12:50:26;13.30;50.90
67870;DHT22;54673;52.262;6.830;2023-01-26T13:01:13;13.40;50.90
67870;DHT22;54673;52.262;6.830;2023-01-26T13:03:53;13.40;51.00
67870;DHT22;54673;52.262;6.830;2023-01-26T13:06:22;13.40;51.00
67870;DHT22;54673;52.262;6.830;2023-01-26T13:08:52;13.40;51.00
67870;DHT22;54673;52.262;6.830;2023-01-26T13:11:44;13.40;51.40
67870;DHT22;54673;52.262;6.830;2023-01-26T13:24:45;13.40;51.40
67870;DHT22;54673;52.262;6.830;2023-01-26T13:33:10;13.40;51.70
67870;DHT22;54673;52.262;6.830;2023-01-26T13:35:37;13.50;51.80
67870;DHT22;54673;52.262;6.830;2023-01-26T13:38:15;13.50;51.80
67870;DHT22;54673;52.262;6.830;2023-01-26T13:40:44;13.40;51.70
67870;DHT22;54673;52.262;6.830;2023-01-26T13:48:50;13.40;51.90
67870;DHT22;54673;52.262;6.830;2023-01-26T13:56:27;13.40;51.90
67870;DHT22;54673;52.262;6.830;2023-01-26T13:58:53;13.40;52.00
67870;DHT22;54673;52.262;6.830;2023-01-26T14:01:27;13.40;52.00
67870;DHT22;54673;52.262;6.830;2023-01-26T14:04:04;13.40;52.20
67870;DHT22;54673;52.262;6.830;2023-01-26T14:06:31;13.40;52.20
67870;DHT22;54673;52.262;6.830;2023-01-26T14:08:57;13.40;52.20
67870;DHT22;54673;52.262;6.830;2023-01-26T14:11:28;13.40;52.20
67870;DHT22;54673;52.262;6.830;2023-01-26T14:13:57;13.40;52.40
67870;DHT22;54673;52.262;6.830;2023-01-26T14:16:28;13.50;52.30
67870;DHT22;54673;52.262;6.830;2023-01-26T14:19:14;13.40;52.40
67870;DHT22;54673;52.262;6.830;2023-01-26T14:24:10;13.40;52.50
67870;DHT22;54673;52.262;6.830;2023-01-26T14:26:37;13.40;52.50
67870;DHT22;54673;52.262;6.830;2023-01-26T14:29:17;13.40;52.50
67870;DHT22;54673;52.262;6.830;2023-01-26T14:31:45;13.40;52.60
67870;DHT22;54673;52.262;6.830;2023-01-26T14:34:22;13.40;52.60
67870;DHT22;54673;52.262;6.830;2023-01-26T14:36:48;13.50;52.90
67870;DHT22;54673;52.262;6.830;2023-01-26T14:39:28;13.50;53.10
67870;DHT22;54673;52.262;6.830;2023-01-26T14:41:54;13.50;54.30
67870;DHT22;54673;52.262;6.830;2023-01-26T14:44:19;13.50;53.70
67870;DHT22;54673;52.262;6.830;2023-01-26T14:51:51;13.60;54.10
67870;DHT22;54673;52.262;6.830;2023-01-26T14:54:26;13.60;54.40
67870;DHT22;54673;52.262;6.830;2023-01-26T14:56:53;13.60;54.40
67870;DHT22;54673;52.262;6.830;2023-01-26T14:59:27;13.60;54.60
67870;DHT22;54673;52.262;6.830;2023-01-26T15:04:47;13.60;54.90
67870;DHT22;54673;52.262;6.830;2023-01-26T15:07:37;13.60;54.90
67870;DHT22;54673;52.262;6.830;2023-01-26T15:10:39;13.60;54.70
67870;DHT22;54673;52.262;6.830;2023-01-26T15:15:48;13.60;54.20
67870;DHT22;54673;52.262;6.830;2023-01-26T15:18:29;13.50;54.00
67870;DHT22;54673;52.262;6.830;2023-01-26T15:21:01;13.60;53.90
67870;DHT22;54673;52.262;6.830;2023-01-26T15:23:36;13.50;53.70
67870;DHT22;54673;52.262;6.830;2023-01-26T15:26:39;13.60;53.70
67870;DHT22;54673;52.262;6.830;2023-01-26T15:29:00;13.50;53.60
67870;DHT22;54673;52.262;6.830;2023-01-26T15:31:34;13.50;53.70
67870;DHT22;54673;52.262;6.830;2023-01-26T15:34:01;13.50;53.80
67870;DHT22;54673;52.262;6.830;2023-01-26T15:39:02;13.50;53.60
67870;DHT22;54673;52.262;6.830;2023-01-26T15:41:28;13.50;53.50
67870;DHT22;54673;52.262;6.830;2023-01-26T15:43:55;13.50;53.40
67870;DHT22;54673;52.262;6.830;2023-01-26T15:46:21;13.60;53.40
67870;DHT22;54673;52.262;6.830;2023-01-26T15:48:47;13.50;53.10
67870;DHT22;54673;52.262;6.830;2023-01-26T15:51:13;13.50;53.10
67870;DHT22;54673;52.262;6.830;2023-01-26T15:53:40;13.50;53.00
67870;DHT22;54673;52.262;6.830;2023-01-26T15:56:12;13.50;53.00
67870;DHT22;54673;52.262;6.830;2023-01-26T15:58:38;13.50;52.90
67870;DHT22;54673;52.262;6.830;2023-01-26T16:01:04;13.50;52.90
67870;DHT22;54673;52.262;6.830;2023-01-26T16:03:31;13.50;53.00
67870;DHT22;54673;52.262;6.830;2023-01-26T16:05:57;13.50;53.00
67870;DHT22;54673;52.262;6.830;2023-01-26T16:08:23;13.50;52.80
67870;DHT22;54673;52.262;6.830;2023-01-26T16:10:48;13.50;52.80
67870;DHT22;54673;52.262;6.830;2023-01-26T16:13:16;13.50;52.80
67870;DHT22;54673;52.262;6.830;2023-01-26T16:15:51;13.50;52.70
67870;DHT22;54673;52.262;6.830;2023-01-26T16:18:17;13.50;52.70
67870;DHT22;54673;52.262;6.830;2023-01-26T16:20:45;13.50;52.70
67870;DHT22;54673;52.262;6.830;2023-01-26T16:23:20;13.50;53.60
67870;DHT22;54673;52.262;6.830;2023-01-26T16:25:46;13.50;52.60
67870;DHT22;54673;52.262;6.830;2023-01-26T16:28:13;13.50;53.50
67870;DHT22;54673;52.262;6.830;2023-01-26T16:30:39;13.50;52.60
67870;DHT22;54673;52.262;6.830;2023-01-26T16:33:06;13.50;52.50
67870;DHT22;54673;52.262;6.830;2023-01-26T16:35:31;13.50;52.50
67870;DHT22;54673;52.262;6.830;2023-01-26T16:37:57;13.50;52.50
67870;DHT22;54673;52.262;6.830;2023-01-26T16:40:23;13.50;52.50
67870;DHT22;54673;52.262;6.830;2023-01-26T16:42:51;13.50;52.50
67870;DHT22;54673;52.262;6.830;2023-01-26T16:45:21;13.50;52.50
67870;DHT22;54673;52.262;6.830;2023-01-26T16:47:52;13.50;52.40
67870;DHT22;54673;52.262;6.830;2023-01-26T16:50:22;13.50;52.50
67870;DHT22;54673;52.262;6.830;2023-01-26T16:52:47;13.50;52.40
67870;DHT22;54673;52.262;6.830;2023-01-26T16:55:14;13.50;52.40
67870;DHT22;54673;52.262;6.830;2023-01-26T16:57:43;13.50;52.30
67870;DHT22;54673;52.262;6.830;2023-01-26T17:00:13;13.50;52.30
67870;DHT22;54673;52.262;6.830;2023-01-26T17:02:41;13.50;52.20
67870;DHT22;54673;52.262;6.830;2023-01-26T17:05:13;13.50;52.30
67870;DHT22;54673;52.262;6.830;2023-01-26T17:07:38;13.50;52.30
67870;DHT22;54673;52.262;6.830;2023-01-26T17:10:04;13.50;52.30
67870;DHT22;54673;52.262;6.830;2023-01-26T17:12:30;13.50;52.30
67870;DHT22;54673;52.262;6.830;2023-01-26T17:14:57;13.50;52.30
67870;DHT22;54673;52.262;6.830;2023-01-26T17:17:22;13.50;52.30
67870;DHT22;54673;52.262;6.830;2023-01-26T17:19:48;13.50;52.30
67870;DHT22;54673;52.262;6.830;2023-01-26T17:22:14;13.40;52.20
67870;DHT22;54673;52.262;6.830;2023-01-26T17:24:39;13.50;52.20
67870;DHT22;54673;52.262;6.830;2023-01-26T17:27:07;13.50;52.20
67870;DHT22;54673;52.262;6.830;2023-01-26T17:29:35;13.50;52.20
67870;DHT22;54673;52.262;6.830;2023-01-26T17:32:01;13.50;52.20